• Join FlightAware (Why Join?)
  • Login
  • US Flag 
06:31AM EDT


 

Airport Tracker/Info


-or-


 

Live Flight TrackerFlight Track Log ✈ CES2026 ✈ 13-Jul-2013 ✈ ZPJH / JHG - ZPPP / KMG

Flight Track Log - Related Links

Times and Time Zones

All times are in EDT time to prevent confusion due to time zone crossing. See the CES2026 flight status page for this flight to view local times or setup timezone preferences in your user account.

Time Position Orientation Groundspeed Altitude Reporting Facility
EDT Latitude Longitude Course Direction KTS MPH feet Rate Location/Type
03:54AM 23.6536 101.9092 32° Northeast  Level Estimated
03:55AM 23.7298 101.9621 32° Northeast  Level Estimated
03:56AM 23.8059 102.0151 32° Northeast  Level Estimated
03:57AM 23.8820 102.0682 33° Northeast  Level Estimated
03:58AM 23.9581 102.1213 33° Northeast  Level Estimated
03:59AM 24.0342 102.1745 33° Northeast  Level Estimated
04:00AM 24.1103 102.2278 33° Northeast  Level Estimated
04:01AM 24.1863 102.2811 33° Northeast  Level Estimated
04:02AM 24.2623 102.3344 33° Northeast  Level Estimated
04:03AM 24.3383 102.3879 33° Northeast  Level Estimated
04:04AM 24.4143 102.4414 33° Northeast  Level Estimated
04:05AM 24.4903 102.4950 33° Northeast  Level Estimated
04:06AM 24.5662 102.5486 33° Northeast  Level Estimated
04:07AM 24.6422 102.6023 33° Northeast  Level Estimated
04:08AM 24.7181 102.6561 33° Northeast  Level Estimated
04:09AM 24.7940 102.7099 33° Northeast  Level Estimated
04:10AM 24.8699 102.7638 33° Northeast  Level Estimated
04:11AM 24.9457 102.8178 33° Northeast  Level Estimated
04:12AM 25.0215 102.8718 33° Northeast  Level Estimated
04:13AM 25.0973 102.9259 33° Northeast  Level Estimated
04:14AM 25.1019 102.9292 33° Northeast  Level Estimated
04:15AM 25.1019 102.9292 326° Northwest  Level Estimated
04:16AM 25.1019 102.9292 326° Northwest  Level Estimated
04:17AM 25.1019 102.9292 326° Northwest  Level Estimated
04:18AM 25.1019 102.9292 326° Northwest  Level Estimated
04:19AM 25.1019 102.9292 326° Northwest  Level Estimated
04:20AM 25.1019 102.9292 326° Northwest  Level Estimated
04:21AM 25.1019 102.9292 326° Northwest  Level Estimated
04:22AM 25.1019 102.9292 326° Northwest  Level Estimated
04:23AM 25.1019 102.9292 326° Northwest  Level Estimated
04:24AM 25.1019 102.9292 326° Northwest  Level Estimated
04:25AM 25.1019 102.9292 326° Northwest  Level Estimated